createdAt,value
2018-12-25T00:02:25.459Z,75.30
2018-12-25T00:04:53.280Z,75.40
2018-12-25T00:07:21.251Z,74.40
2018-12-25T00:10:08.480Z,74.60
2018-12-25T00:12:36.357Z,75.30
2018-12-25T00:15:04.274Z,74.00
2018-12-25T00:17:32.088Z,74.50
2018-12-25T00:20:00.705Z,74.60
2018-12-25T00:22:28.526Z,74.60
2018-12-25T00:24:56.319Z,74.60
2018-12-25T00:27:24.149Z,74.90
2018-12-25T00:29:51.954Z,74.60
2018-12-25T00:32:19.737Z,74.90
2018-12-25T00:34:47.545Z,74.10
2018-12-25T00:37:15.327Z,73.90
2018-12-25T00:39:43.093Z,73.60
2018-12-25T00:42:10.877Z,72.60
2018-12-25T00:44:38.720Z,72.00
2018-12-25T00:47:06.831Z,72.00
2018-12-25T00:49:34.630Z,72.20
2018-12-25T00:52:02.686Z,72.40
2018-12-25T00:54:30.589Z,72.60
2018-12-25T00:56:58.404Z,73.00
2018-12-25T00:59:26.626Z,73.30
2018-12-25T01:01:59.513Z,72.50
2018-12-25T01:04:29.598Z,72.00
2018-12-25T01:06:57.365Z,72.20
2018-12-25T01:09:25.164Z,72.60
2018-12-25T01:11:53.023Z,71.80
2018-12-25T01:14:20.831Z,71.80
2018-12-25T01:16:49.089Z,71.80
2018-12-25T01:19:23.231Z,72.20
2018-12-25T01:21:52.398Z,72.60
2018-12-25T01:24:20.174Z,72.20
2018-12-25T01:26:47.962Z,72.20
2018-12-25T01:29:27.717Z,72.70
2018-12-25T01:31:55.696Z,72.60
2018-12-25T01:34:23.533Z,72.40
2018-12-25T01:36:51.327Z,73.30
2018-12-25T01:39:19.127Z,73.10
2018-12-25T01:41:46.947Z,73.50
2018-12-25T01:44:14.699Z,73.40
2018-12-25T01:46:42.651Z,74.30
2018-12-25T01:49:10.842Z,74.80
2018-12-25T01:51:38.703Z,74.40
2018-12-25T01:54:06.516Z,73.70
2018-12-25T01:56:34.357Z,74.70
2018-12-25T01:59:02.155Z,74.70
2018-12-25T02:01:29.967Z,74.70
2018-12-25T02:03:57.745Z,74.70
2018-12-25T02:06:25.528Z,74.70
2018-12-25T02:08:53.306Z,74.90
2018-12-25T02:11:21.135Z,74.40
2018-12-25T02:13:48.953Z,72.80
2018-12-25T02:16:16.777Z,73.70
2018-12-25T02:18:44.526Z,74.00
2018-12-25T02:21:12.596Z,72.90
2018-12-25T02:23:40.368Z,72.40
2018-12-25T02:26:08.176Z,72.30
2018-12-25T02:28:36.095Z,73.40
2018-12-25T02:31:09.185Z,72.90
2018-12-25T02:33:36.961Z,72.40
2018-12-25T02:36:04.766Z,73.90
2018-12-25T02:38:32.544Z,73.90
2018-12-25T02:41:00.346Z,74.90
2018-12-25T02:43:28.138Z,74.90
2018-12-25T02:45:55.909Z,74.90
2018-12-25T02:48:23.732Z,75.20
2018-12-25T02:50:56.827Z,74.80
2018-12-25T02:53:24.656Z,74.40
2018-12-25T02:55:52.754Z,75.00
2018-12-25T02:58:22.708Z,75.00
2018-12-25T03:00:50.865Z,75.00
2018-12-25T03:03:18.684Z,73.90
2018-12-25T03:05:46.601Z,74.10
2018-12-25T03:08:14.459Z,75.20
2018-12-25T03:10:47.334Z,73.40
2018-12-25T03:13:15.158Z,74.90
2018-12-25T03:15:42.926Z,73.70
2018-12-25T03:18:10.726Z,72.70
2018-12-25T03:20:38.596Z,72.30
2018-12-25T03:23:06.359Z,72.40
2018-12-25T03:25:34.129Z,72.60
2018-12-25T03:28:01.926Z,72.50
2018-12-25T03:30:29.777Z,71.90
2018-12-25T03:32:57.621Z,72.30
2018-12-25T03:35:25.385Z,72.30
2018-12-25T03:37:53.217Z,72.50
2018-12-25T03:40:21.062Z,72.00
2018-12-25T03:42:48.877Z,71.90
2018-12-25T03:45:16.658Z,72.90
2018-12-25T03:47:44.450Z,72.80
2018-12-25T03:50:12.312Z,73.20
2018-12-25T03:52:40.082Z,72.70
2018-12-25T03:55:07.942Z,72.50
2018-12-25T03:57:35.695Z,74.00
2018-12-25T04:00:04.097Z,73.20
2018-12-25T04:02:32.063Z,73.20
2018-12-25T04:04:59.839Z,72.80
2018-12-25T04:07:28.371Z,72.60
2018-12-25T04:09:56.177Z,72.60
2018-12-25T04:12:23.985Z,73.70
2018-12-25T04:14:53.798Z,73.30
2018-12-25T04:17:21.583Z,73.50
2018-12-25T04:19:49.386Z,73.70
2018-12-25T04:22:17.246Z,73.70
2018-12-25T04:24:45.102Z,73.60
2018-12-25T04:27:12.969Z,74.30
2018-12-25T04:29:40.839Z,74.90
2018-12-25T04:32:21.105Z,74.50
2018-12-25T04:34:50.633Z,75.60
2018-12-25T04:37:18.490Z,75.10
2018-12-25T04:39:46.264Z,74.70
2018-12-25T04:42:14.043Z,75.10
2018-12-25T04:44:41.824Z,75.30
2018-12-25T04:47:09.647Z,74.20
2018-12-25T04:49:37.444Z,74.40
2018-12-25T04:52:10.454Z,73.90
2018-12-25T04:54:38.281Z,74.00
2018-12-25T04:57:06.064Z,73.80
2018-12-25T04:59:33.837Z,73.50
2018-12-25T05:02:01.759Z,73.60
2018-12-25T05:04:29.567Z,73.20
2018-12-25T05:06:57.393Z,72.70
2018-12-25T05:09:25.161Z,73.60
2018-12-25T05:11:53.124Z,73.40
2018-12-25T05:14:20.941Z,73.20
2018-12-25T05:16:48.753Z,72.70
2018-12-25T05:19:16.558Z,72.00
2018-12-25T05:21:44.506Z,72.20
2018-12-25T05:24:12.319Z,73.30
2018-12-25T05:26:40.073Z,73.20
2018-12-25T05:29:07.899Z,72.80
2018-12-25T05:31:37.193Z,72.20
2018-12-25T05:34:05.000Z,73.60
2018-12-25T05:36:32.794Z,71.80
2018-12-25T05:39:00.602Z,70.60
2018-12-25T05:41:28.466Z,71.90
2018-12-25T05:43:56.247Z,71.90
2018-12-25T05:46:24.026Z,71.10
2018-12-25T05:48:53.284Z,70.20
2018-12-25T05:51:21.054Z,70.30
2018-12-25T05:53:51.174Z,70.20
2018-12-25T05:56:18.954Z,70.60
2018-12-25T05:58:46.768Z,71.80
2018-12-25T06:01:14.541Z,71.10
2018-12-25T06:03:42.326Z,71.20
2018-12-25T06:06:10.067Z,70.40
2018-12-25T06:08:37.878Z,70.20
2018-12-25T06:11:05.631Z,70.20
2018-12-25T06:13:33.425Z,70.10
2018-12-25T06:16:01.212Z,70.10
2018-12-25T06:18:28.999Z,70.90
2018-12-25T06:20:56.778Z,70.30
2018-12-25T06:23:24.586Z,70.40
2018-12-25T06:25:52.348Z,71.80
2018-12-25T06:28:20.444Z,71.60
2018-12-25T06:30:48.271Z,71.70
2018-12-25T06:33:16.177Z,71.80
2018-12-25T06:35:44.069Z,70.30
2018-12-25T06:38:11.874Z,69.10
2018-12-25T06:40:45.019Z,70.30
2018-12-25T06:43:12.860Z,70.40
2018-12-25T06:45:40.621Z,70.40
2018-12-25T06:48:08.432Z,70.40
2018-12-25T06:50:36.387Z,70.30
2018-12-25T06:53:04.212Z,69.40
2018-12-25T06:55:32.050Z,69.50
2018-12-25T06:58:00.040Z,69.90
2018-12-25T07:00:27.775Z,70.20
2018-12-25T07:02:55.593Z,70.60
2018-12-25T07:05:23.366Z,72.50
2018-12-25T07:07:51.206Z,72.50
2018-12-25T07:10:19.419Z,72.10
2018-12-25T07:12:47.263Z,72.10
2018-12-25T07:15:15.072Z,71.70
2018-12-25T07:17:42.899Z,71.60
2018-12-25T07:20:10.682Z,71.80
2018-12-25T07:22:38.504Z,72.00
2018-12-25T07:25:07.403Z,72.20
2018-12-25T07:27:35.245Z,72.00
2018-12-25T07:30:03.241Z,71.90
2018-12-25T07:32:31.090Z,71.20
2018-12-25T07:34:58.806Z,71.00
2018-12-25T07:37:26.600Z,71.50
2018-12-25T07:39:54.385Z,71.30
2018-12-25T07:42:22.208Z,71.60
2018-12-25T07:44:49.997Z,71.70
2018-12-25T07:47:17.743Z,70.80
2018-12-25T07:49:45.559Z,70.70
2018-12-25T07:52:13.367Z,70.60
2018-12-25T07:54:41.584Z,70.60
2018-12-25T07:57:09.351Z,72.00
2018-12-25T07:59:37.164Z,72.20
2018-12-25T08:02:05.230Z,72.00
2018-12-25T08:04:33.074Z,72.80
2018-12-25T08:07:00.892Z,71.60
2018-12-25T08:09:28.701Z,70.60
2018-12-25T08:11:56.579Z,70.80
2018-12-25T08:14:24.448Z,70.60
2018-12-25T08:16:52.229Z,71.00
2018-12-25T08:19:20.009Z,70.50
2018-12-25T08:21:47.830Z,71.00
2018-12-25T08:24:15.688Z,70.30
2018-12-25T08:26:43.489Z,70.60
2018-12-25T08:29:11.230Z,70.70
2018-12-25T08:31:39.082Z,70.70
2018-12-25T08:34:06.881Z,71.30
2018-12-25T08:36:36.540Z,70.70
2018-12-25T08:39:06.655Z,70.70
2018-12-25T08:41:34.413Z,70.90
2018-12-25T08:44:02.186Z,69.50
2018-12-25T08:46:29.984Z,69.30
2018-12-25T08:48:57.760Z,68.60
2018-12-25T08:51:25.744Z,69.70
2018-12-25T08:53:53.530Z,68.20
2018-12-25T08:56:21.720Z,68.60
2018-12-25T08:58:49.512Z,66.90
2018-12-25T09:01:17.316Z,67.30
2018-12-25T09:03:45.158Z,66.90
2018-12-25T09:06:16.175Z,65.90
2018-12-25T09:08:44.051Z,65.90
2018-12-25T09:11:11.780Z,66.00
2018-12-25T09:13:39.557Z,66.00
2018-12-25T09:16:07.349Z,66.10
2018-12-25T09:18:35.216Z,64.00
2018-12-25T09:21:03.038Z,64.10
2018-12-25T09:23:30.867Z,64.50
2018-12-25T09:25:58.711Z,65.50
2018-12-25T09:28:26.525Z,66.10
2018-12-25T09:30:54.338Z,66.10
2018-12-25T09:33:22.074Z,66.20
2018-12-25T09:35:49.869Z,66.50
2018-12-25T09:38:17.778Z,66.30
2018-12-25T09:40:45.646Z,66.20
2018-12-25T09:43:13.480Z,63.50
2018-12-25T09:45:43.172Z,64.50
2018-12-25T09:48:13.370Z,63.60
2018-12-25T09:50:51.875Z,62.10
2018-12-25T09:53:19.646Z,62.80
2018-12-25T09:55:47.545Z,63.10
2018-12-25T09:58:15.383Z,63.00
2018-12-25T10:00:44.135Z,62.80
2018-12-25T10:03:14.895Z,61.00
2018-12-25T10:05:46.753Z,61.10
2018-12-25T10:08:15.939Z,61.60
2018-12-25T10:10:44.674Z,61.80
2018-12-25T10:13:12.466Z,62.00
2018-12-25T10:15:40.213Z,61.40
2018-12-25T10:18:08.042Z,60.80
2018-12-25T10:20:35.844Z,60.40
2018-12-25T10:23:04.876Z,60.30
2018-12-25T10:25:36.034Z,59.10
2018-12-25T10:28:03.862Z,58.10
2018-12-25T10:30:33.338Z,57.00
2018-12-25T10:33:01.440Z,58.10
2018-12-25T10:35:29.338Z,56.60
2018-12-25T10:37:57.148Z,56.50
2018-12-25T10:40:24.952Z,58.10
2018-12-25T10:42:54.762Z,56.40
2018-12-25T10:45:23.857Z,57.80
2018-12-25T10:47:54.043Z,57.60
2018-12-25T10:50:22.192Z,56.80
2018-12-25T10:52:51.159Z,56.90
2018-12-25T10:55:21.525Z,57.00
2018-12-25T10:57:49.354Z,57.10
2018-12-25T11:00:17.162Z,57.00
2018-12-25T11:02:44.994Z,56.60
2018-12-25T11:05:12.785Z,55.10
2018-12-25T11:07:40.590Z,55.00
2018-12-25T11:10:09.525Z,54.30
2018-12-25T11:12:37.318Z,53.80
2018-12-25T11:15:06.366Z,54.80
2018-12-25T11:17:34.185Z,54.70
2018-12-25T11:20:01.998Z,54.20
2018-12-25T11:22:29.782Z,54.00
2018-12-25T11:24:57.568Z,53.10
2018-12-25T11:27:25.392Z,53.00
2018-12-25T11:29:53.204Z,52.10
2018-12-25T11:32:21.163Z,52.40
2018-12-25T11:34:48.985Z,52.20
2018-12-25T11:37:17.343Z,52.10
2018-12-25T11:39:45.561Z,52.80
2018-12-25T11:42:13.777Z,52.40
2018-12-25T11:44:42.074Z,53.40
2018-12-25T11:47:09.870Z,52.10
2018-12-25T11:49:37.685Z,53.20
2018-12-25T11:52:05.726Z,54.30
2018-12-25T11:54:33.510Z,54.50
2018-12-25T11:57:01.368Z,54.30
2018-12-25T11:59:29.310Z,54.30
2018-12-25T12:02:02.386Z,54.00
2018-12-25T12:04:30.159Z,54.70
2018-12-25T12:06:59.584Z,54.70
2018-12-25T12:09:27.375Z,54.30
2018-12-25T12:12:19.871Z,54.70
2018-12-25T12:14:47.708Z,55.00
2018-12-25T12:17:15.474Z,56.20
2018-12-25T12:19:43.331Z,54.80
2018-12-25T12:22:11.175Z,55.00
2018-12-25T12:24:40.784Z,55.00
2018-12-25T12:27:08.531Z,56.40
2018-12-25T12:29:36.375Z,54.80
2018-12-25T12:32:04.199Z,55.80
2018-12-25T12:34:32.028Z,56.80
2018-12-25T12:36:59.895Z,56.80
2018-12-25T12:39:27.714Z,56.80
2018-12-25T12:41:55.498Z,55.80
2018-12-25T12:44:23.296Z,55.90
2018-12-25T12:46:51.107Z,56.20
2018-12-25T12:49:18.902Z,56.30
2018-12-25T12:51:46.747Z,56.10
2018-12-25T12:54:14.534Z,55.30
2018-12-25T12:56:51.413Z,55.70
2018-12-25T12:59:19.241Z,55.90
2018-12-25T13:01:47.174Z,56.10
2018-12-25T13:04:15.016Z,56.40
2018-12-25T13:06:42.914Z,56.40
2018-12-25T13:09:10.710Z,56.10
2018-12-25T13:11:38.543Z,56.80
2018-12-25T13:14:06.334Z,56.80
2018-12-25T13:16:34.181Z,56.90
2018-12-25T13:19:01.986Z,56.80
2018-12-25T13:21:29.788Z,56.00
2018-12-25T13:23:57.584Z,56.40
2018-12-25T13:26:33.434Z,55.90
2018-12-25T13:29:01.233Z,56.80
2018-12-25T13:31:29.053Z,56.10
2018-12-25T13:33:56.883Z,56.80
2018-12-25T13:36:24.682Z,56.80
2018-12-25T13:38:52.560Z,57.50
2018-12-25T13:41:20.548Z,56.70
2018-12-25T13:43:48.334Z,56.70
2018-12-25T13:46:16.129Z,56.70
2018-12-25T13:48:43.922Z,56.80
2018-12-25T13:51:11.835Z,57.30
2018-12-25T13:53:39.777Z,56.80
2018-12-25T13:56:07.578Z,56.80
2018-12-25T13:58:35.453Z,56.80
2018-12-25T14:01:13.408Z,56.80
2018-12-25T14:03:41.234Z,56.80
2018-12-25T14:06:09.045Z,56.70
2018-12-25T14:08:36.801Z,56.80
2018-12-25T14:11:04.765Z,56.70
2018-12-25T14:13:32.534Z,56.60
2018-12-25T14:16:00.307Z,56.90
2018-12-25T14:18:28.121Z,56.60
2018-12-25T14:20:55.966Z,56.50
2018-12-25T14:23:24.243Z,56.50
2018-12-25T14:25:52.053Z,57.40
2018-12-25T14:28:19.873Z,57.40
2018-12-25T14:30:48.077Z,58.20
2018-12-25T14:33:15.839Z,57.90
2018-12-25T14:35:43.655Z,57.70
2018-12-25T14:38:11.405Z,57.60
2018-12-25T14:40:44.400Z,58.50
2018-12-25T14:43:12.194Z,57.60
2018-12-25T14:45:40.110Z,58.00
2018-12-25T14:48:07.922Z,59.10
2018-12-25T14:50:35.759Z,58.20
2018-12-25T14:53:19.810Z,58.80
2018-12-25T14:55:45.430Z,59.00
2018-12-25T14:58:13.275Z,58.40
2018-12-25T15:00:41.226Z,58.00
2018-12-25T15:03:08.998Z,58.10
2018-12-25T15:05:36.817Z,58.60
2018-12-25T15:08:04.709Z,58.80
2018-12-25T15:11:03.141Z,58.90
2018-12-25T15:13:30.918Z,58.20
2018-12-25T15:15:58.750Z,58.60
2018-12-25T15:18:26.571Z,59.50
2018-12-25T15:21:09.499Z,58.40
2018-12-25T15:23:37.450Z,59.00
2018-12-25T15:26:05.354Z,58.90
2018-12-25T15:28:33.184Z,58.80
2018-12-25T15:31:00.993Z,58.10
2018-12-25T15:33:28.764Z,57.60
2018-12-25T15:35:57.915Z,58.40
2018-12-25T15:38:25.836Z,59.00
2018-12-25T15:40:56.576Z,58.90
2018-12-25T15:43:24.425Z,58.80
2018-12-25T15:45:52.290Z,59.90
2018-12-25T15:48:20.155Z,59.70
2018-12-25T15:50:48.213Z,59.10
2018-12-25T15:53:16.263Z,59.20
2018-12-25T15:55:46.170Z,59.30
2018-12-25T15:58:18.936Z,59.20
2018-12-25T16:01:01.794Z,59.00
2018-12-25T16:03:29.670Z,60.20
2018-12-25T16:05:57.450Z,58.40
2018-12-25T16:08:25.253Z,57.50
2018-12-25T16:10:53.133Z,58.00
2018-12-25T16:13:20.997Z,57.20
2018-12-25T16:15:48.798Z,58.20
2018-12-25T16:18:16.686Z,57.90
2018-12-25T16:20:44.539Z,59.10
2018-12-25T16:23:12.368Z,58.70
2018-12-25T16:25:40.165Z,57.90
2018-12-25T16:28:08.009Z,58.50
2018-12-25T16:30:35.825Z,58.60
2018-12-25T16:33:03.654Z,58.30
2018-12-25T16:35:31.467Z,59.30
2018-12-25T16:37:59.298Z,58.80
2018-12-25T16:40:27.108Z,59.80
2018-12-25T16:42:54.941Z,59.30
2018-12-25T16:45:22.753Z,59.50
2018-12-25T16:47:50.597Z,59.20
2018-12-25T16:50:19.726Z,60.00
2018-12-25T16:52:47.536Z,58.70
2018-12-25T16:55:15.430Z,59.30
2018-12-25T16:57:43.231Z,59.10
2018-12-25T17:00:11.052Z,59.20
2018-12-25T17:02:54.211Z,59.40
2018-12-25T17:05:22.030Z,60.20
2018-12-25T17:07:49.817Z,59.90
2018-12-25T17:10:17.626Z,60.00
2018-12-25T17:12:45.488Z,60.40
2018-12-25T17:15:13.312Z,60.30
2018-12-25T17:17:41.103Z,60.90
2018-12-25T17:20:09.090Z,60.70
2018-12-25T17:22:36.914Z,61.40
2018-12-25T17:25:04.679Z,62.00
2018-12-25T17:27:32.481Z,62.30
2018-12-25T17:30:00.344Z,62.60
2018-12-25T17:32:28.271Z,63.60
2018-12-25T17:34:58.792Z,63.20
2018-12-25T17:37:29.513Z,64.40
2018-12-25T17:39:57.504Z,64.40
2018-12-25T17:42:35.728Z,64.10
2018-12-25T17:45:07.899Z,64.00
2018-12-25T17:47:38.000Z,63.60
2018-12-25T17:50:05.772Z,64.10
2018-12-25T17:52:33.538Z,64.50
2018-12-25T17:55:01.361Z,64.00
2018-12-25T17:57:29.197Z,63.70
2018-12-25T17:59:59.441Z,65.40
2018-12-25T18:02:27.248Z,65.30
2018-12-25T18:04:57.724Z,65.20
2018-12-25T18:07:25.787Z,65.20
2018-12-25T18:09:53.592Z,67.60
2018-12-25T18:12:21.379Z,67.30
2018-12-25T18:14:49.211Z,66.40
2018-12-25T18:17:18.928Z,67.30
2018-12-25T18:19:46.725Z,67.10
2018-12-25T18:22:14.537Z,66.20
2018-12-25T18:24:42.377Z,66.40
2018-12-25T18:27:10.172Z,66.70
2018-12-25T18:29:38.006Z,65.50
2018-12-25T18:32:05.818Z,66.10
2018-12-25T18:34:33.611Z,65.50
2018-12-25T18:37:01.406Z,66.00
2018-12-25T18:39:48.737Z,65.70
2018-12-25T18:42:23.166Z,66.40
2018-12-25T18:44:46.454Z,65.50
2018-12-25T18:47:14.256Z,65.50
2018-12-25T18:49:42.079Z,66.10
2018-12-25T18:52:40.384Z,65.60
2018-12-25T18:55:08.170Z,66.70
2018-12-25T18:57:36.023Z,66.80
2018-12-25T19:00:05.918Z,65.80
2018-12-25T19:02:33.846Z,65.80
2018-12-25T19:05:01.640Z,65.80
2018-12-25T19:07:29.432Z,65.90
2018-12-25T19:09:57.264Z,66.90
2018-12-25T19:12:25.491Z,67.10
2018-12-25T19:15:23.320Z,67.10
2018-12-25T19:17:53.864Z,66.00
2018-12-25T19:20:36.708Z,65.90
2018-12-25T19:23:04.531Z,66.10
2018-12-25T19:25:32.367Z,65.50
2018-12-25T19:28:00.181Z,65.90
2018-12-25T19:30:30.856Z,63.30
2018-12-25T19:32:58.615Z,63.60
2018-12-25T19:35:26.473Z,64.60
2018-12-25T19:37:54.324Z,64.10
2018-12-25T19:40:22.124Z,63.00
2018-12-25T19:42:49.991Z,64.30
2018-12-25T19:45:19.680Z,65.90
2018-12-25T19:47:47.915Z,65.00
2018-12-25T19:50:15.857Z,64.20
2018-12-25T19:52:43.817Z,64.60
2018-12-25T19:55:11.718Z,65.20
2018-12-25T19:57:41.566Z,63.70
2018-12-25T20:00:12.249Z,64.00
2018-12-25T20:03:02.919Z,64.30
2018-12-25T20:06:36.739Z,66.00
2018-12-25T20:09:59.322Z,64.80
2018-12-25T20:13:32.273Z,66.00
2018-12-25T20:17:02.933Z,65.90
2018-12-25T20:20:42.519Z,66.10
2018-12-25T20:24:02.687Z,66.00
2018-12-25T20:27:20.346Z,66.40
2018-12-25T20:30:34.217Z,65.90
2018-12-25T20:34:02.477Z,65.90
2018-12-25T20:37:46.513Z,65.80
2018-12-25T20:41:29.672Z,65.80
2018-12-25T20:45:07.635Z,65.80
2018-12-25T20:48:48.372Z,65.70
2018-12-25T20:52:11.715Z,65.70
2018-12-25T20:55:58.856Z,65.70
2018-12-25T20:59:40.484Z,65.70
2018-12-25T21:03:21.661Z,65.50
2018-12-25T21:06:37.716Z,65.60
2018-12-25T21:10:02.717Z,65.50
2018-12-25T21:13:27.644Z,66.00
2018-12-25T21:17:03.000Z,65.60
2018-12-25T21:21:11.392Z,65.90
2018-12-25T21:24:35.209Z,66.20
2018-12-25T21:27:33.085Z,66.70
2018-12-25T21:30:07.766Z,67.30
2018-12-25T21:32:58.406Z,67.30
2018-12-25T21:35:27.018Z,67.70
2018-12-25T21:37:57.076Z,67.60
2018-12-25T21:40:26.360Z,68.30
2018-12-25T21:42:56.697Z,68.90
2018-12-25T21:45:25.219Z,69.10
2018-12-25T21:47:54.565Z,69.30
2018-12-25T21:50:23.723Z,69.30
2018-12-25T21:52:53.076Z,69.30
2018-12-25T21:55:21.564Z,68.90
2018-12-25T21:57:51.168Z,69.10
2018-12-25T22:00:21.908Z,69.30
2018-12-25T22:02:51.983Z,70.10
2018-12-25T22:05:20.753Z,70.40
2018-12-25T22:07:48.546Z,70.10
2018-12-25T22:10:16.373Z,70.10
2018-12-25T22:12:49.234Z,70.00
2018-12-25T22:15:17.030Z,70.00
2018-12-25T22:17:44.855Z,70.20
2018-12-25T22:20:34.518Z,70.00
2018-12-25T22:23:02.311Z,70.40
2018-12-25T22:25:30.135Z,70.00
2018-12-25T22:27:57.903Z,70.40
2018-12-25T22:30:25.735Z,71.30
2018-12-25T22:32:53.549Z,71.70
2018-12-25T22:35:21.418Z,70.90
2018-12-25T22:37:49.231Z,71.10
2018-12-25T22:40:17.050Z,70.80
2018-12-25T22:42:44.857Z,72.40
2018-12-25T22:45:12.645Z,73.10
2018-12-25T22:47:40.391Z,74.00
2018-12-25T22:50:08.234Z,72.90
2018-12-25T22:52:36.061Z,73.00
2018-12-25T22:55:04.497Z,73.40
2018-12-25T22:57:32.414Z,74.60
2018-12-25T23:00:00.267Z,74.60
2018-12-25T23:02:28.099Z,74.50
2018-12-25T23:04:55.941Z,74.50
2018-12-25T23:07:23.746Z,74.50
2018-12-25T23:09:51.536Z,74.50
2018-12-25T23:12:19.325Z,75.60
2018-12-25T23:14:47.134Z,74.70
2018-12-25T23:17:15.002Z,75.20
2018-12-25T23:19:42.835Z,76.20
2018-12-25T23:22:10.678Z,75.90
2018-12-25T23:24:38.469Z,75.40
2018-12-25T23:27:06.247Z,74.50
2018-12-25T23:29:34.094Z,74.50
2018-12-25T23:32:07.089Z,74.50
2018-12-25T23:34:34.877Z,74.50
2018-12-25T23:37:02.606Z,74.50
2018-12-25T23:39:30.410Z,75.70
2018-12-25T23:41:59.433Z,75.80
2018-12-25T23:44:27.393Z,76.10
2018-12-25T23:46:55.186Z,75.50
2018-12-25T23:49:25.123Z,75.90
2018-12-25T23:51:52.982Z,75.90
2018-12-25T23:54:20.746Z,76.40
2018-12-25T23:56:49.507Z,76.60
2018-12-25T23:59:17.307Z,76.80
